createdAt,value
2023-02-14T00:01:42.824Z,4.97
2023-02-14T00:04:47.116Z,4.94
2023-02-14T00:07:49.990Z,4.92
2023-02-14T00:10:52.956Z,4.93
2023-02-14T00:14:15.237Z,4.92
2023-02-14T00:17:18.087Z,4.91
2023-02-14T00:20:24.378Z,4.88
2023-02-14T00:23:27.265Z,4.83
2023-02-14T00:26:30.226Z,4.83
2023-02-14T00:29:33.734Z,4.83
2023-02-14T00:32:39.615Z,4.85
2023-02-14T00:35:42.485Z,4.85
2023-02-14T00:38:45.501Z,4.83
2023-02-14T00:41:48.361Z,4.79
2023-02-14T00:44:52.567Z,4.78
2023-02-14T00:47:55.890Z,4.76
2023-02-14T00:50:58.940Z,4.74
2023-02-14T00:54:04.517Z,4.72
2023-02-14T00:57:07.350Z,4.67
2023-02-14T01:00:13.573Z,4.65
2023-02-14T01:03:16.473Z,4.62
2023-02-14T01:06:19.809Z,4.60
2023-02-14T01:09:22.666Z,4.60
2023-02-14T01:12:25.564Z,4.55
2023-02-14T01:15:29.696Z,4.53
2023-02-14T01:18:32.836Z,4.52
2023-02-14T01:21:36.326Z,4.51
2023-02-14T01:24:39.262Z,4.50
2023-02-14T01:27:42.163Z,4.48
2023-02-14T01:30:45.080Z,4.46
2023-02-14T01:33:49.816Z,4.47
2023-02-14T01:36:52.854Z,4.43
2023-02-14T01:39:55.923Z,4.42
2023-02-14T01:42:58.765Z,4.42
2023-02-14T01:46:01.656Z,4.40
2023-02-14T01:49:35.766Z,4.38
2023-02-14T01:52:45.495Z,4.39
2023-02-14T01:55:55.184Z,4.41
2023-02-14T01:59:02.811Z,4.42
2023-02-14T02:02:06.185Z,4.40
2023-02-14T02:05:10.082Z,4.37
2023-02-14T02:08:12.994Z,4.36
2023-02-14T02:11:16.361Z,4.34
2023-02-14T02:14:22.410Z,4.36
2023-02-14T02:17:34.884Z,4.35
2023-02-14T02:21:29.588Z,4.37
2023-02-14T02:24:41.445Z,4.35
2023-02-14T02:27:46.520Z,4.34
2023-02-14T02:31:04.120Z,4.43
2023-02-14T02:34:38.850Z,4.40
2023-02-14T02:37:52.868Z,4.40
2023-02-14T02:41:10.288Z,4.39
2023-02-14T02:44:34.028Z,4.38
2023-02-14T02:48:03.894Z,4.36
2023-02-14T02:51:30.085Z,4.34
2023-02-14T02:54:44.840Z,4.33
2023-02-14T02:57:51.499Z,4.35
2023-02-14T03:00:55.280Z,4.31
2023-02-14T03:04:24.119Z,4.29
2023-02-14T03:07:41.657Z,4.27
2023-02-14T03:10:45.914Z,4.29
2023-02-14T03:14:07.387Z,4.26
2023-02-14T03:17:42.926Z,4.22
2023-02-14T03:21:17.303Z,4.30
2023-02-14T03:24:41.141Z,4.26
2023-02-14T03:28:12.371Z,4.25
2023-02-14T03:31:27.381Z,4.29
2023-02-14T03:34:41.136Z,4.22
2023-02-14T03:37:53.337Z,4.20
2023-02-14T03:41:01.781Z,4.22
2023-02-14T03:44:10.218Z,4.21
2023-02-14T03:47:19.819Z,4.18
2023-02-14T03:50:25.590Z,4.14
2023-02-14T03:53:31.702Z,4.08
2023-02-14T03:56:43.328Z,4.11
2023-02-14T03:59:45.994Z,4.13
2023-02-14T04:02:59.132Z,4.12
2023-02-14T04:06:02.105Z,4.10
2023-02-14T04:09:04.990Z,4.05
2023-02-14T04:12:08.424Z,4.04
2023-02-14T04:15:12.273Z,4.04
2023-02-14T04:18:33.834Z,4.03
2023-02-14T04:21:36.672Z,4.07
2023-02-14T04:24:40.038Z,4.10
2023-02-14T04:27:42.962Z,4.02
2023-02-14T04:30:45.881Z,4.01
2023-02-14T04:33:51.211Z,4.03
2023-02-14T04:36:54.796Z,4.00
2023-02-14T04:39:57.497Z,3.98
2023-02-14T04:43:01.588Z,3.93
2023-02-14T04:46:04.624Z,3.97
2023-02-14T04:49:08.281Z,4.03
2023-02-14T04:52:11.120Z,4.05
2023-02-14T04:55:13.940Z,4.01
2023-02-14T04:58:17.289Z,3.98
2023-02-14T05:01:20.419Z,3.96
2023-02-14T05:04:23.479Z,4.13
2023-02-14T05:07:26.435Z,4.10
2023-02-14T05:10:29.369Z,4.03
2023-02-14T05:13:32.330Z,4.02
2023-02-14T05:16:35.269Z,3.97
2023-02-14T05:19:38.238Z,3.96
2023-02-14T05:22:41.071Z,4.00
2023-02-14T05:25:48.676Z,3.99
2023-02-14T05:28:51.560Z,4.02
2023-02-14T05:31:54.494Z,3.97
2023-02-14T05:34:57.313Z,3.97
2023-02-14T05:38:00.111Z,3.89
2023-02-14T05:41:03.180Z,3.90
2023-02-14T05:44:06.115Z,3.90
2023-02-14T05:47:09.454Z,3.92
2023-02-14T05:50:13.175Z,3.89
2023-02-14T05:53:16.093Z,3.89
2023-02-14T05:56:19.003Z,3.86
2023-02-14T05:59:21.917Z,3.89
2023-02-14T06:02:24.976Z,3.88
2023-02-14T06:05:28.344Z,3.92
2023-02-14T06:08:30.909Z,3.91
2023-02-14T06:11:36.546Z,3.96
2023-02-14T06:14:39.124Z,3.96
2023-02-14T06:17:42.242Z,3.96
2023-02-14T06:20:44.758Z,3.96
2023-02-14T06:23:47.832Z,3.98
2023-02-14T06:26:50.349Z,4.01
2023-02-14T06:29:53.477Z,4.05
2023-02-14T06:32:56.137Z,4.11
2023-02-14T06:35:59.481Z,4.11
2023-02-14T06:39:02.226Z,4.16
2023-02-14T06:42:05.393Z,4.21
2023-02-14T06:45:08.552Z,4.34
2023-02-14T06:48:11.678Z,4.35
2023-02-14T06:51:14.274Z,4.39
2023-02-14T06:54:17.432Z,4.43
2023-02-14T06:57:20.048Z,4.56
2023-02-14T07:00:23.282Z,4.67
2023-02-14T07:03:27.528Z,4.87
2023-02-14T07:06:31.200Z,4.81
2023-02-14T07:09:34.042Z,4.79
2023-02-14T07:12:39.610Z,4.94
2023-02-14T07:15:42.122Z,5.07
2023-02-14T07:18:45.377Z,5.16
2023-02-14T07:21:47.917Z,5.22
2023-02-14T07:24:51.329Z,5.37
2023-02-14T07:27:54.011Z,5.46
2023-02-14T07:31:01.666Z,5.64
2023-02-14T07:34:04.497Z,5.83
2023-02-14T07:37:07.649Z,6.07
2023-02-14T07:40:14.999Z,6.20
2023-02-14T07:43:20.160Z,6.42
2023-02-14T07:46:22.865Z,6.72
2023-02-14T07:49:26.068Z,7.05
2023-02-14T07:52:28.605Z,7.41
2023-02-14T07:55:31.756Z,7.79
2023-02-14T07:58:34.332Z,8.15
2023-02-14T08:01:37.543Z,8.72
2023-02-14T08:04:40.477Z,9.52
2023-02-14T08:07:46.323Z,10.16
2023-02-14T08:10:49.278Z,11.28
2023-02-14T08:13:52.094Z,13.71
2023-02-14T08:16:55.064Z,17.33
2023-02-14T08:19:57.867Z,19.73
2023-02-14T08:23:00.676Z,20.32
2023-02-14T08:26:04.486Z,19.15
2023-02-14T08:29:07.340Z,19.19
2023-02-14T08:32:11.482Z,19.58
2023-02-14T08:35:14.398Z,20.25
2023-02-14T08:38:19.837Z,20.68
2023-02-14T08:41:22.634Z,21.28
2023-02-14T08:44:25.514Z,22.66
2023-02-14T08:47:28.334Z,23.54
2023-02-14T08:50:31.761Z,23.84
2023-02-14T08:53:35.086Z,24.19
2023-02-14T08:56:38.457Z,24.15
2023-02-14T08:59:41.555Z,23.82
2023-02-14T09:02:44.471Z,23.93
2023-02-14T09:05:47.574Z,24.38
2023-02-14T09:08:50.725Z,26.22
2023-02-14T09:11:53.774Z,29.09
2023-02-14T09:14:56.600Z,31.26
2023-02-14T09:17:59.494Z,33.31
2023-02-14T09:21:06.931Z,35.31
2023-02-14T09:24:09.769Z,36.37
2023-02-14T09:27:12.668Z,37.05
2023-02-14T09:30:16.017Z,37.64
2023-02-14T09:33:18.825Z,38.00
2023-02-14T09:36:21.805Z,38.73
2023-02-14T09:39:24.749Z,39.32
2023-02-14T09:43:00.747Z,39.89
2023-02-14T09:46:11.545Z,39.59
2023-02-14T09:49:18.416Z,40.14
2023-02-14T09:52:26.374Z,40.07
2023-02-14T09:55:40.565Z,40.44
2023-02-14T09:58:47.249Z,40.61
2023-02-14T10:01:57.335Z,40.55
2023-02-14T10:05:06.873Z,37.51
2023-02-14T10:08:15.331Z,35.49
2023-02-14T10:11:22.590Z,34.97
2023-02-14T10:14:33.834Z,34.15
2023-02-14T10:18:03.249Z,31.65
2023-02-14T10:21:08.715Z,28.55
2023-02-14T10:24:19.164Z,25.44
2023-02-14T10:27:42.515Z,24.22
2023-02-14T10:31:04.689Z,23.36
2023-02-14T10:34:25.480Z,22.75
2023-02-14T10:37:34.438Z,22.29
2023-02-14T10:40:46.289Z,21.94
2023-02-14T10:43:58.520Z,21.83
2023-02-14T10:47:04.381Z,21.59
2023-02-14T10:50:23.746Z,21.42
2023-02-14T10:53:32.199Z,21.20
2023-02-14T10:56:43.552Z,21.27
2023-02-14T11:00:01.498Z,21.13
2023-02-14T11:03:08.151Z,21.05
2023-02-14T11:06:11.595Z,20.72
2023-02-14T11:09:15.473Z,20.35
2023-02-14T11:12:37.555Z,20.29
2023-02-14T11:15:41.929Z,20.25
2023-02-14T11:18:44.582Z,20.28
2023-02-14T11:21:50.708Z,20.20
2023-02-14T11:25:04.760Z,20.23
2023-02-14T11:28:17.019Z,20.03
2023-02-14T11:31:46.072Z,19.74
2023-02-14T11:35:02.991Z,19.44
2023-02-14T11:38:24.510Z,19.33
2023-02-14T11:41:27.876Z,19.44
2023-02-14T11:44:33.214Z,19.25
2023-02-14T11:47:42.897Z,19.19
2023-02-14T11:50:57.374Z,19.37
2023-02-14T11:54:05.044Z,19.51
2023-02-14T11:57:13.566Z,19.49
2023-02-14T12:00:19.968Z,19.66
2023-02-14T12:03:24.908Z,19.68
2023-02-14T12:06:30.424Z,19.16
2023-02-14T12:09:34.201Z,18.95
2023-02-14T12:12:37.443Z,19.17
2023-02-14T12:15:52.922Z,18.84
2023-02-14T12:19:03.243Z,18.61
2023-02-14T12:22:07.224Z,18.75
2023-02-14T12:25:17.290Z,18.78
2023-02-14T12:28:28.296Z,18.69
2023-02-14T12:31:31.717Z,18.76
2023-02-14T12:34:36.287Z,18.48
2023-02-14T12:37:56.038Z,18.31
2023-02-14T12:41:30.448Z,18.20
2023-02-14T12:44:54.539Z,18.23
2023-02-14T12:53:28.906Z,18.08
2023-02-14T12:56:47.159Z,18.11
2023-02-14T13:00:06.976Z,18.14
2023-02-14T13:03:39.498Z,18.16
2023-02-14T13:07:08.776Z,18.23
2023-02-14T13:10:14.889Z,19.27
2023-02-14T13:14:04.658Z,20.52
2023-02-14T13:17:15.029Z,22.10
2023-02-14T13:20:33.850Z,23.93
2023-02-14T13:23:45.434Z,25.05
2023-02-14T13:27:00.515Z,26.09
2023-02-14T13:30:14.037Z,26.59
2023-02-14T13:33:28.172Z,26.63
2023-02-14T13:36:32.571Z,25.92
2023-02-14T13:39:45.791Z,24.33
2023-02-14T13:42:51.881Z,22.31
2023-02-14T13:45:55.290Z,20.66
2023-02-14T13:49:20.281Z,19.60
2023-02-14T13:52:42.231Z,18.57
2023-02-14T13:55:48.727Z,17.60
2023-02-14T13:58:54.249Z,16.84
2023-02-14T14:02:37.542Z,16.34
2023-02-14T14:05:43.784Z,15.84
2023-02-14T14:08:49.381Z,15.19
2023-02-14T14:11:52.497Z,14.90
2023-02-14T14:15:08.046Z,14.55
2023-02-14T14:18:13.832Z,14.03
2023-02-14T14:21:25.463Z,13.56
2023-02-14T14:24:31.832Z,13.17
2023-02-14T14:27:41.154Z,12.84
2023-02-14T14:30:45.051Z,12.82
2023-02-14T14:33:58.268Z,12.59
2023-02-14T14:37:07.929Z,12.35
2023-02-14T14:40:27.162Z,12.10
2023-02-14T14:43:38.504Z,11.91
2023-02-14T14:46:41.548Z,11.74
2023-02-14T14:49:44.445Z,11.98
2023-02-14T14:52:51.055Z,11.50
2023-02-14T14:55:54.893Z,11.48
2023-02-14T14:58:58.198Z,11.19
2023-02-14T15:02:01.749Z,10.99
2023-02-14T15:05:41.964Z,10.82
2023-02-14T15:08:45.285Z,10.94
2023-02-14T15:12:06.674Z,10.65
2023-02-14T15:15:16.545Z,10.62
2023-02-14T15:18:21.369Z,10.51
2023-02-14T15:21:24.469Z,10.42
2023-02-14T15:24:27.501Z,10.33
2023-02-14T15:27:30.796Z,10.28
2023-02-14T15:30:37.775Z,10.31
2023-02-14T15:33:41.365Z,10.34
2023-02-14T15:36:49.091Z,10.44
2023-02-14T15:39:57.934Z,10.23
2023-02-14T15:43:25.247Z,10.19
2023-02-14T15:46:32.260Z,9.98
2023-02-14T15:49:41.220Z,9.93
2023-02-14T15:52:45.414Z,9.92
2023-02-14T15:55:49.890Z,9.95
2023-02-14T15:59:00.756Z,9.92
2023-02-14T16:02:27.478Z,9.69
2023-02-14T16:05:30.370Z,9.62
2023-02-14T16:08:38.546Z,9.48
2023-02-14T16:11:41.564Z,9.38
2023-02-14T16:14:46.540Z,9.26
2023-02-14T16:17:49.604Z,9.16
2023-02-14T16:20:52.599Z,9.12
2023-02-14T16:24:10.716Z,9.04
2023-02-14T16:27:13.563Z,8.97
2023-02-14T16:30:18.462Z,8.89
2023-02-14T16:33:30.206Z,8.85
2023-02-14T16:36:34.324Z,8.78
2023-02-14T16:39:39.727Z,8.72
2023-02-14T16:42:43.355Z,8.69
2023-02-14T16:45:46.401Z,8.62
2023-02-14T16:48:52.857Z,8.62
2023-02-14T16:51:55.936Z,8.56
2023-02-14T16:54:58.795Z,8.50
2023-02-14T16:58:03.382Z,8.49
2023-02-14T17:01:06.228Z,8.47
2023-02-14T17:04:10.138Z,8.49
2023-02-14T17:07:15.684Z,8.42
2023-02-14T17:10:24.996Z,8.43
2023-02-14T17:13:33.848Z,8.38
2023-02-14T17:16:37.693Z,8.28
2023-02-14T17:19:40.635Z,8.24
2023-02-14T17:22:44.589Z,8.23
2023-02-14T17:25:47.677Z,8.19
2023-02-14T17:28:50.545Z,8.11
2023-02-14T17:31:53.622Z,8.06
2023-02-14T17:34:57.106Z,8.12
2023-02-14T17:38:00.129Z,8.05
2023-02-14T17:41:16.936Z,7.97
2023-02-14T17:44:19.851Z,7.93
2023-02-14T17:47:22.711Z,7.88
2023-02-14T17:50:25.688Z,7.84
2023-02-14T17:53:28.619Z,7.89
2023-02-14T17:56:31.501Z,7.84
2023-02-14T17:59:34.832Z,7.80
2023-02-14T18:02:37.656Z,7.73
2023-02-14T18:05:40.892Z,7.74
2023-02-14T18:08:46.302Z,7.70
2023-02-14T18:11:50.455Z,7.77
2023-02-14T18:14:55.212Z,7.74
2023-02-14T18:17:58.282Z,7.71
2023-02-14T18:21:03.147Z,7.61
2023-02-14T18:24:07.411Z,7.54
2023-02-14T18:27:10.052Z,7.50
2023-02-14T18:30:13.558Z,7.47
2023-02-14T18:33:17.781Z,7.39
2023-02-14T18:36:24.318Z,7.38
2023-02-14T18:39:26.952Z,7.37
2023-02-14T18:42:30.952Z,7.33
2023-02-14T18:45:38.311Z,7.42
2023-02-14T18:48:42.022Z,7.37
2023-02-14T18:51:44.690Z,7.29
2023-02-14T18:54:50.301Z,7.21
2023-02-14T18:57:53.014Z,7.15
2023-02-14T19:00:56.604Z,7.15
2023-02-14T19:04:01.195Z,7.10
2023-02-14T19:07:04.565Z,7.11
2023-02-14T19:10:07.781Z,7.10
2023-02-14T19:13:10.894Z,7.10
2023-02-14T19:16:17.926Z,7.22
2023-02-14T19:19:22.909Z,7.09
2023-02-14T19:22:25.770Z,6.98
2023-02-14T19:25:29.490Z,6.90
2023-02-14T19:28:32.035Z,6.80
2023-02-14T19:31:38.056Z,6.78
2023-02-14T19:34:40.863Z,6.74
2023-02-14T19:37:43.982Z,6.70
2023-02-14T19:40:46.655Z,6.69
2023-02-14T19:43:53.224Z,6.67
2023-02-14T19:46:56.614Z,6.95
2023-02-14T19:49:59.887Z,6.80
2023-02-14T19:53:02.471Z,6.66
2023-02-14T19:56:06.398Z,6.60
2023-02-14T19:59:10.245Z,6.56
2023-02-14T20:02:15.262Z,6.49
2023-02-14T20:05:20.189Z,6.43
2023-02-14T20:08:23.070Z,6.38
2023-02-14T20:11:32.080Z,6.38
2023-02-14T20:14:50.495Z,6.44
2023-02-14T20:17:54.489Z,6.38
2023-02-14T20:21:03.406Z,6.30
2023-02-14T20:24:06.558Z,6.24
2023-02-14T20:27:09.451Z,6.24
2023-02-14T20:30:12.789Z,6.22
2023-02-14T20:33:15.691Z,6.24
2023-02-14T20:36:21.790Z,6.18
2023-02-14T20:39:29.542Z,6.25
2023-02-14T20:42:32.611Z,6.18
2023-02-14T20:45:35.433Z,6.15
2023-02-14T20:48:38.465Z,6.09
2023-02-14T20:51:41.422Z,6.05
2023-02-14T20:54:44.292Z,6.05
2023-02-14T20:57:47.163Z,6.04
2023-02-14T21:00:50.031Z,6.01
2023-02-14T21:03:53.745Z,5.97
2023-02-14T21:06:57.739Z,5.90
2023-02-14T21:10:00.711Z,5.86
2023-02-14T21:13:03.610Z,5.85
2023-02-14T21:16:12.370Z,5.81
2023-02-14T21:19:15.422Z,5.79
2023-02-14T21:22:18.277Z,5.80
2023-02-14T21:25:23.428Z,5.75
2023-02-14T21:28:27.942Z,5.73
2023-02-14T21:31:31.994Z,5.73
2023-02-14T21:34:35.547Z,5.69
2023-02-14T21:37:38.205Z,5.66
2023-02-14T21:40:40.921Z,5.61
2023-02-14T21:43:45.368Z,5.56
2023-02-14T21:46:48.161Z,5.53
2023-02-14T21:50:09.883Z,5.51
2023-02-14T21:53:12.961Z,5.60
2023-02-14T21:56:19.652Z,5.56
2023-02-14T21:59:22.669Z,5.53
2023-02-14T22:02:25.695Z,5.50
2023-02-14T22:05:28.845Z,5.49
2023-02-14T22:08:31.795Z,5.49
2023-02-14T22:11:35.267Z,5.44
2023-02-14T22:14:37.838Z,5.43
2023-02-14T22:17:40.942Z,5.54
2023-02-14T22:20:43.852Z,5.52
2023-02-14T22:23:47.058Z,5.43
2023-02-14T22:26:49.470Z,5.39
2023-02-14T22:29:52.846Z,5.31
2023-02-14T22:32:55.406Z,5.26
2023-02-14T22:36:00.058Z,5.49
2023-02-14T22:39:03.602Z,5.34
2023-02-14T22:42:06.984Z,5.29
2023-02-14T22:45:10.046Z,5.28
2023-02-14T22:48:14.934Z,5.26
2023-02-14T22:51:25.608Z,5.33
2023-02-14T22:54:28.860Z,5.25
2023-02-14T22:57:31.965Z,5.18
2023-02-14T23:00:35.295Z,5.17
2023-02-14T23:03:37.899Z,5.16
2023-02-14T23:06:41.140Z,5.19
2023-02-14T23:09:43.654Z,5.08
2023-02-14T23:13:05.109Z,5.03
2023-02-14T23:16:27.838Z,5.28
2023-02-14T23:19:52.230Z,5.07
2023-02-14T23:22:54.813Z,5.04
2023-02-14T23:25:59.919Z,5.08
2023-02-14T23:29:02.638Z,4.96
2023-02-14T23:32:07.389Z,4.93
2023-02-14T23:35:10.764Z,4.87
2023-02-14T23:38:14.264Z,4.86
2023-02-14T23:41:35.365Z,4.86
2023-02-14T23:44:40.842Z,4.81
2023-02-14T23:47:43.612Z,4.78
2023-02-14T23:50:46.721Z,4.87
2023-02-14T23:53:49.565Z,4.78
2023-02-14T23:56:53.509Z,4.74
2023-02-14T23:59:56.027Z,4.72
